createdAt,value
2023-01-19T00:02:34.392Z,101560.72
2023-01-19T00:07:39.085Z,101566.84
2023-01-19T00:12:46.524Z,101547.69
2023-01-19T00:17:53.542Z,101563.13
2023-01-19T00:22:59.200Z,101545.47
2023-01-19T00:28:07.684Z,101552.53
2023-01-19T00:33:18.966Z,101545.03
2023-01-19T00:38:24.818Z,101540.06
2023-01-19T00:43:30.709Z,101525.91
2023-01-19T00:48:34.491Z,101526.75
2023-01-19T00:53:40.811Z,101509.25
2023-01-19T00:58:48.778Z,101516.13
2023-01-19T01:03:55.059Z,101512.88
2023-01-19T01:08:59.698Z,101526.44
2023-01-19T01:14:03.640Z,101528.03
2023-01-19T01:19:07.784Z,101510.34
2023-01-19T01:24:13.046Z,101528.13
2023-01-19T01:29:17.822Z,101525.75
2023-01-19T01:34:21.844Z,101491.31
2023-01-19T01:39:26.667Z,101482.13
2023-01-19T01:45:26.782Z,101463.69
2023-01-19T01:50:39.221Z,101468.72
2023-01-19T01:55:49.926Z,101454.38
2023-01-19T02:01:16.386Z,101463.91
2023-01-19T02:06:24.552Z,101466.38
2023-01-19T02:11:51.015Z,101456.31
2023-01-19T02:16:57.374Z,101443.59
2023-01-19T02:22:23.099Z,101437.81
2023-01-19T02:27:29.123Z,101438.66
2023-01-19T02:32:35.602Z,101442.91
2023-01-19T02:37:42.968Z,101436.94
2023-01-19T02:42:55.231Z,101443.75
2023-01-19T02:47:59.061Z,101373.88
2023-01-19T02:53:30.101Z,101432.84
2023-01-19T02:58:58.489Z,101431.25
2023-01-19T03:04:12.949Z,101415.97
2023-01-19T03:09:32.005Z,101428.72
2023-01-19T03:14:49.821Z,101440.44
2023-01-19T03:19:55.035Z,101446.47
2023-01-19T03:25:05.802Z,101441.44
2023-01-19T03:30:21.542Z,101455.94
2023-01-19T03:35:32.846Z,101458.56
2023-01-19T03:41:38.913Z,101442.63
2023-01-19T03:46:45.312Z,101445.38
2023-01-19T03:51:49.161Z,101440.34
2023-01-19T03:56:54.759Z,101426.00
2023-01-19T04:02:01.867Z,101404.19
2023-01-19T04:07:05.736Z,101398.25
2023-01-19T04:12:12.296Z,101400.94
2023-01-19T04:17:17.610Z,101412.97
2023-01-19T04:22:24.048Z,101409.91
2023-01-19T04:27:29.522Z,101405.09
2023-01-19T04:32:35.762Z,101396.88
2023-01-19T04:37:39.562Z,101394.38
2023-01-19T04:42:47.802Z,101387.78
2023-01-19T04:47:53.002Z,101375.75
2023-01-19T04:52:58.088Z,101386.84
2023-01-19T04:58:04.259Z,101388.41
2023-01-19T05:03:08.218Z,101375.72
2023-01-19T05:08:14.056Z,101401.16
2023-01-19T05:13:18.870Z,101378.38
2023-01-19T05:18:22.776Z,101388.44
2023-01-19T05:23:27.244Z,101394.28
2023-01-19T05:28:32.620Z,101401.13
2023-01-19T05:33:36.438Z,101397.03
2023-01-19T05:38:41.251Z,101393.63
2023-01-19T05:43:51.915Z,101389.47
2023-01-19T05:48:56.765Z,101382.91
2023-01-19T05:54:04.268Z,101384.13
2023-01-19T05:59:09.508Z,101389.13
2023-01-19T06:04:15.755Z,101385.66
2023-01-19T06:09:20.408Z,101377.06
2023-01-19T06:14:25.244Z,101370.41
2023-01-19T06:19:30.119Z,101372.16
2023-01-19T06:24:34.844Z,101378.09
2023-01-19T06:29:39.458Z,101368.13
2023-01-19T06:34:49.038Z,101363.97
2023-01-19T06:39:55.131Z,101352.25
2023-01-19T06:44:59.988Z,101349.81
2023-01-19T06:50:06.150Z,101345.69
2023-01-19T06:55:11.699Z,101344.94
2023-01-19T07:00:18.791Z,101336.53
2023-01-19T07:05:24.184Z,101324.75
2023-01-19T07:11:24.857Z,101329.78
2023-01-19T07:15:52.627Z,101340.09
2023-01-19T07:20:58.741Z,101334.28
2023-01-19T07:26:06.807Z,101323.03
2023-01-19T07:31:13.191Z,101344.34
2023-01-19T07:36:17.028Z,101339.25
2023-01-19T07:41:22.215Z,101342.69
2023-01-19T07:46:26.112Z,101341.09
2023-01-19T07:51:31.025Z,101330.91
2023-01-19T07:56:36.397Z,101343.53
2023-01-19T08:01:43.670Z,101339.97
2023-01-19T08:06:49.054Z,101363.72
2023-01-19T08:11:56.271Z,101362.78
2023-01-19T08:17:04.955Z,101366.91
2023-01-19T08:22:08.802Z,101366.78
2023-01-19T08:27:13.481Z,101369.34
2023-01-19T08:32:17.704Z,101376.13
2023-01-19T08:37:26.871Z,101380.28
2023-01-19T08:42:33.126Z,101381.94
2023-01-19T08:47:37.894Z,101341.69
2023-01-19T08:52:44.062Z,101385.34
2023-01-19T08:57:51.542Z,101399.78
2023-01-19T09:02:57.149Z,101403.22
2023-01-19T09:08:02.042Z,101413.38
2023-01-19T09:13:09.018Z,101408.28
2023-01-19T09:18:15.870Z,101424.22
2023-01-19T09:23:24.123Z,101433.44
2023-01-19T09:28:30.003Z,101438.47
2023-01-19T09:33:35.443Z,101450.28
2023-01-19T09:38:41.647Z,101452.81
2023-01-19T09:44:01.097Z,101455.34
2023-01-19T09:49:16.626Z,101457.00
2023-01-19T09:54:31.315Z,101462.03
2023-01-19T09:59:36.524Z,101476.31
2023-01-19T10:05:03.344Z,101475.44
2023-01-19T10:10:27.295Z,101466.16
2023-01-19T10:15:42.000Z,101471.16
2023-01-19T10:20:54.432Z,101473.56
2023-01-19T10:26:05.060Z,101470.13
2023-01-19T10:31:10.746Z,101457.41
2023-01-19T10:36:34.570Z,101476.75
2023-01-19T10:41:38.285Z,101486.03
2023-01-19T10:46:50.032Z,101482.56
2023-01-19T10:51:57.006Z,101503.69
2023-01-19T10:57:10.512Z,101499.44
2023-01-19T11:02:32.751Z,101523.09
2023-01-19T11:07:38.158Z,101520.47
2023-01-19T11:13:13.374Z,101528.06
2023-01-19T11:18:40.179Z,101538.91
2023-01-19T11:23:52.181Z,101548.13
2023-01-19T11:28:59.466Z,101553.88
2023-01-19T11:34:06.936Z,101568.09
2023-01-19T11:39:25.119Z,101563.78
2023-01-19T11:44:44.212Z,101567.94
2023-01-19T11:50:22.589Z,101577.16
2023-01-19T11:55:42.016Z,101583.84
2023-01-19T12:01:04.173Z,101587.13
2023-01-19T12:06:15.229Z,101604.00
2023-01-19T12:11:25.359Z,101612.41
2023-01-19T12:16:33.714Z,101615.75
2023-01-19T12:21:39.269Z,101623.34
2023-01-19T12:26:52.206Z,101608.00
2023-01-19T12:32:16.064Z,101619.19
2023-01-19T12:37:42.909Z,101617.47
2023-01-19T12:43:03.688Z,101619.19
2023-01-19T12:48:28.220Z,101620.91
2023-01-19T12:53:33.153Z,101614.16
2023-01-19T12:58:39.070Z,101619.25
2023-01-19T13:04:10.048Z,101626.78
2023-01-19T13:09:33.010Z,101623.47
2023-01-19T13:14:39.269Z,101571.16
2023-01-19T13:20:23.900Z,101644.50
2023-01-19T13:25:36.954Z,101638.69
2023-01-19T13:30:54.243Z,101653.06
2023-01-19T13:35:59.720Z,101642.88
2023-01-19T13:41:05.506Z,101648.84
2023-01-19T13:46:16.006Z,101640.44
2023-01-19T13:51:23.123Z,101643.00
2023-01-19T13:56:30.229Z,101652.31
2023-01-19T14:01:39.596Z,101645.63
2023-01-19T14:06:49.766Z,101649.84
2023-01-19T14:12:06.674Z,101652.47
2023-01-19T14:17:26.999Z,101655.00
2023-01-19T14:22:45.093Z,101615.69
2023-01-19T14:27:49.043Z,101649.81
2023-01-19T14:32:54.852Z,101654.88
2023-01-19T14:37:58.851Z,101654.06
2023-01-19T14:43:07.714Z,101652.34
2023-01-19T14:48:22.780Z,101662.59
2023-01-19T14:53:29.285Z,101654.16
2023-01-19T14:58:35.920Z,101657.41
2023-01-19T15:03:45.352Z,101633.84
2023-01-19T15:08:54.633Z,101624.53
2023-01-19T15:14:03.985Z,101622.94
2023-01-19T15:19:12.506Z,101617.06
2023-01-19T15:24:17.923Z,101610.31
2023-01-19T15:29:27.683Z,101637.28
2023-01-19T15:34:34.075Z,101642.25
2023-01-19T15:39:37.937Z,101646.47
2023-01-19T15:44:45.716Z,101649.09
2023-01-19T15:49:49.433Z,101646.44
2023-01-19T15:54:54.347Z,101640.50
2023-01-19T15:59:58.125Z,101638.84
2023-01-19T16:05:04.849Z,101590.81
2023-01-19T16:10:15.017Z,101642.19
2023-01-19T16:15:19.651Z,101640.44
2023-01-19T16:20:27.850Z,101643.81
2023-01-19T16:25:33.347Z,101631.06
2023-01-19T16:30:37.280Z,101629.44
2023-01-19T16:35:42.430Z,101614.88
2023-01-19T16:40:48.569Z,101631.09
2023-01-19T16:46:03.461Z,101625.25
2023-01-19T16:51:08.113Z,101632.03
2023-01-19T16:56:15.410Z,101628.56
2023-01-19T17:01:24.223Z,101626.03
2023-01-19T17:06:31.250Z,101615.13
2023-01-19T17:11:38.349Z,101634.56
2023-01-19T17:16:45.769Z,101628.69
2023-01-19T17:21:51.083Z,101626.97
2023-01-19T17:26:55.938Z,101628.72
2023-01-19T17:32:01.065Z,101632.09
2023-01-19T17:37:05.215Z,101636.34
2023-01-19T17:42:10.734Z,101625.47
2023-01-19T17:47:16.247Z,101638.13
2023-01-19T17:52:20.560Z,101639.81
2023-01-19T17:57:24.523Z,101634.78
2023-01-19T18:02:28.550Z,101622.16
2023-01-19T18:07:34.153Z,101618.03
2023-01-19T18:12:39.682Z,101617.19
2023-01-19T18:17:46.641Z,101624.84
2023-01-19T18:22:50.417Z,101620.63
2023-01-19T18:27:56.659Z,101617.22
2023-01-19T18:33:01.235Z,101616.34
2023-01-19T18:38:06.092Z,101596.66
2023-01-19T18:43:12.179Z,101628.78
2023-01-19T18:48:17.994Z,101609.41
2023-01-19T18:53:23.319Z,101605.06
2023-01-19T18:58:32.401Z,101617.00
2023-01-19T19:03:37.848Z,101617.91
2023-01-19T19:08:42.115Z,101612.91
2023-01-19T19:13:46.524Z,101604.50
2023-01-19T19:18:52.300Z,101603.72
2023-01-19T19:23:59.765Z,101612.16
2023-01-19T19:29:06.948Z,101621.59
2023-01-19T19:34:13.172Z,101609.78
2023-01-19T19:39:16.897Z,101615.78
2023-01-19T19:44:20.914Z,101613.31
2023-01-19T19:49:30.591Z,101561.97
2023-01-19T19:54:35.990Z,101604.16
2023-01-19T19:59:41.568Z,101624.50
2023-01-19T20:04:47.348Z,101630.50
2023-01-19T20:09:54.286Z,101635.59
2023-01-19T20:14:58.790Z,101571.44
2023-01-19T20:20:07.036Z,101644.06
2023-01-19T20:25:12.547Z,101635.69
2023-01-19T20:30:17.277Z,101630.59
2023-01-19T20:35:22.170Z,101634.00
2023-01-19T20:40:31.397Z,101637.28
2023-01-19T20:45:38.004Z,101635.72
2023-01-19T20:50:41.811Z,101642.50
2023-01-19T20:55:47.398Z,101635.75
2023-01-19T21:00:53.599Z,101634.03
2023-01-19T21:05:59.674Z,101630.72
2023-01-19T21:11:06.147Z,101629.00
2023-01-19T21:16:13.736Z,101643.38
2023-01-19T21:21:29.735Z,101628.25
2023-01-19T21:26:38.477Z,101635.00
2023-01-19T21:31:44.979Z,101622.31
2023-01-19T21:36:48.751Z,101618.94
2023-01-19T21:41:53.526Z,101627.38
2023-01-19T21:46:58.891Z,101641.69
2023-01-19T21:52:04.140Z,101631.47
2023-01-19T21:57:08.074Z,101634.78
2023-01-19T22:02:13.883Z,101638.22
2023-01-19T22:07:17.679Z,101643.28
2023-01-19T22:12:22.532Z,101632.28
2023-01-19T22:17:27.801Z,101637.22
2023-01-19T22:22:35.597Z,101575.59
2023-01-19T22:27:39.396Z,101632.94
2023-01-19T22:32:43.328Z,101630.41
2023-01-19T22:37:48.664Z,101635.38
2023-01-19T22:42:54.238Z,101634.44
2023-01-19T22:47:57.997Z,101635.31
2023-01-19T22:53:04.122Z,101626.88
2023-01-19T22:58:10.331Z,101639.56
2023-01-19T23:03:15.108Z,101634.59
2023-01-19T23:08:18.936Z,101644.84
2023-01-19T23:13:24.839Z,101634.63
2023-01-19T23:18:30.042Z,101641.63
2023-01-19T23:23:36.883Z,101637.41
2023-01-19T23:28:41.713Z,101648.41
2023-01-19T23:33:47.866Z,101638.28
2023-01-19T23:38:54.422Z,101653.47
2023-01-19T23:43:58.301Z,101662.72
2023-01-19T23:49:04.697Z,101649.25
2023-01-19T23:54:08.847Z,101641.47
2023-01-19T23:59:17.184Z,101659.31
